createdAt,value
2017-11-04T00:00:10.662Z,99.9
2017-11-04T00:05:08.440Z,99.9
2017-11-04T00:10:23.955Z,99.9
2017-11-04T00:15:26.237Z,99.9
2017-11-04T00:20:05.573Z,99.9
2017-11-04T00:25:05.939Z,99.9
2017-11-04T00:30:05.567Z,99.9
2017-11-04T00:35:18.546Z,99.9
2017-11-04T00:40:06.003Z,99.9
2017-11-04T00:45:03.339Z,99.9
2017-11-04T00:50:07.991Z,99.9
2017-11-04T00:55:23.502Z,99.9
2017-11-04T01:00:02.881Z,99.9
2017-11-04T01:05:10.818Z,99.9
2017-11-04T01:10:28.687Z,99.9
2017-11-04T01:15:08.267Z,99.9
2017-11-04T01:20:02.849Z,99.9
2017-11-04T01:25:08.292Z,99.9
2017-11-04T01:30:08.013Z,99.9
2017-11-04T01:35:03.210Z,99.9
2017-11-04T01:40:03.284Z,99.9
2017-11-04T01:45:05.734Z,99.9
2017-11-04T01:50:07.922Z,99.9
2017-11-04T01:55:08.197Z,99.9
2017-11-04T02:00:02.759Z,99.9
2017-11-04T02:05:18.434Z,99.9
2017-11-04T02:10:03.450Z,99.9
2017-11-04T02:15:10.688Z,99.9
2017-11-04T02:20:12.861Z,99.9
2017-11-04T02:25:08.052Z,99.9
2017-11-04T02:30:02.638Z,99.9
2017-11-04T02:35:05.479Z,99.9
2017-11-04T02:40:05.708Z,99.9
2017-11-04T02:45:05.432Z,99.9
2017-11-04T02:50:13.574Z,99.9
2017-11-04T02:55:15.547Z,99.9
2017-11-04T03:00:08.440Z,99.9
2017-11-04T03:05:02.757Z,99.9
2017-11-04T03:10:07.986Z,99.9
2017-11-04T03:15:05.293Z,99.9
2017-11-04T03:20:08.436Z,99.9
2017-11-04T03:25:17.830Z,99.9
2017-11-04T03:30:03.366Z,99.9
2017-11-04T03:35:07.712Z,99.9
2017-11-04T03:40:05.247Z,99.9
2017-11-04T03:45:07.694Z,99.9
2017-11-04T03:50:05.821Z,99.9
2017-11-04T03:55:07.732Z,99.9
2017-11-04T04:00:26.055Z,99.9
2017-11-04T04:05:05.195Z,99.9
2017-11-04T04:10:15.407Z,99.9
2017-11-04T04:15:10.248Z,99.9
2017-11-04T04:20:20.955Z,99.9
2017-11-04T04:25:07.771Z,99.9
2017-11-04T04:35:02.622Z,99.9
2017-11-04T04:40:07.832Z,99.9
2017-11-04T04:45:02.665Z,99.9
2017-11-04T04:50:31.197Z,99.9
2017-11-04T04:55:05.178Z,99.9
2017-11-04T05:00:03.239Z,99.9
2017-11-04T05:05:05.250Z,99.9
2017-11-04T05:10:12.972Z,99.9
2017-11-04T05:15:02.667Z,99.9
2017-11-04T05:20:38.752Z,99.9
2017-11-04T05:25:15.395Z,99.9
2017-11-04T05:30:05.910Z,99.9
2017-11-04T05:35:02.791Z,99.9
2017-11-04T05:40:08.009Z,99.9
2017-11-04T05:45:05.375Z,99.9
2017-11-04T05:50:16.068Z,99.9
2017-11-04T05:55:20.544Z,99.9
2017-11-04T06:00:06.023Z,99.9
2017-11-04T06:05:05.380Z,99.9
2017-11-04T06:10:25.703Z,99.9
2017-11-04T06:15:02.813Z,99.9
2017-11-04T06:20:10.977Z,99.9
2017-11-04T06:25:02.753Z,99.9
2017-11-04T06:30:10.890Z,99.9
2017-11-04T06:35:05.209Z,99.9
2017-11-04T06:40:10.441Z,99.9
2017-11-04T06:45:05.280Z,99.9
2017-11-04T06:50:08.412Z,99.9
2017-11-04T06:55:17.927Z,99.9
2017-11-04T07:00:11.033Z,99.9
2017-11-04T07:05:05.303Z,99.9
2017-11-04T07:10:10.586Z,99.9
2017-11-04T07:15:02.883Z,99.9
2017-11-04T07:20:13.670Z,99.9
2017-11-04T07:25:07.942Z,99.9
2017-11-04T07:30:03.501Z,99.9
2017-11-04T07:35:15.585Z,99.9
2017-11-04T07:40:05.697Z,99.9
2017-11-04T07:45:05.532Z,99.9
2017-11-04T07:50:07.692Z,99.9
2017-11-04T07:55:03.063Z,99.9
2017-11-04T08:00:15.415Z,99.9
2017-11-04T08:05:03.118Z,99.9
2017-11-04T08:10:03.293Z,99.9
2017-11-04T08:15:05.780Z,99.9
2017-11-04T08:20:05.482Z,99.9
2017-11-04T08:25:10.975Z,99.9
2017-11-04T08:30:05.607Z,99.9
2017-11-04T08:35:08.595Z,99.9
2017-11-04T08:45:02.705Z,99.9
2017-11-04T08:50:03.448Z,99.9
2017-11-04T08:55:10.584Z,99.9
2017-11-04T09:00:18.776Z,99.9
2017-11-04T09:10:05.985Z,99.9
2017-11-04T09:15:08.529Z,99.9
2017-11-04T09:20:05.793Z,99.9
2017-11-04T09:25:02.783Z,99.9
2017-11-04T09:30:21.281Z,99.9
2017-11-04T09:35:08.279Z,99.9
2017-11-04T09:40:06.122Z,99.9
2017-11-04T09:45:11.181Z,99.9
2017-11-04T09:50:05.883Z,99.9
2017-11-04T09:55:05.510Z,99.9
2017-11-04T10:00:15.416Z,99.9
2017-11-04T10:05:10.990Z,99.9
2017-11-04T10:10:07.767Z,99.9
2017-11-04T10:15:05.349Z,99.9
2017-11-04T10:20:28.841Z,99.9
2017-11-04T10:25:05.390Z,99.9
2017-11-04T10:30:02.984Z,99.9
2017-11-04T10:35:02.778Z,99.9
2017-11-04T10:40:08.247Z,99.9
2017-11-04T10:45:08.274Z,99.9
2017-11-04T10:50:35.894Z,99.9
2017-11-04T11:00:06.025Z,99.7
2017-11-04T11:05:08.310Z,99.2
2017-11-04T11:10:08.698Z,98.5
2017-11-04T11:15:20.522Z,98.1
2017-11-04T11:20:17.867Z,98.5
2017-11-04T11:25:05.952Z,91.6
2017-11-04T11:30:05.949Z,98
2017-11-04T11:35:05.536Z,97.4
2017-11-04T11:40:03.428Z,97.4
2017-11-04T11:45:10.331Z,97.3
2017-11-04T11:50:08.658Z,96.9
2017-11-04T11:55:03.407Z,96.9
2017-11-04T12:00:08.338Z,96.8
2017-11-04T12:05:03.094Z,96.8
2017-11-04T12:10:06.060Z,97.4
2017-11-04T12:15:05.404Z,95.7
2017-11-04T12:20:15.418Z,95.8
2017-11-04T12:25:06.114Z,96.2
2017-11-04T12:30:03.515Z,96.2
2017-11-04T12:35:08.395Z,95.2
2017-11-04T12:40:02.752Z,95.2
2017-11-04T12:45:03.133Z,94.3
2017-11-04T12:50:18.204Z,94.5
2017-11-04T12:55:02.917Z,94.5
2017-11-04T13:00:05.395Z,93.9
2017-11-04T13:05:02.674Z,93.8
2017-11-04T13:10:08.218Z,94.4
2017-11-04T13:15:28.798Z,94.2
2017-11-04T13:20:03.396Z,94.1
2017-11-04T13:25:05.786Z,94.3
2017-11-04T13:30:10.791Z,94.6
2017-11-04T13:35:05.559Z,94.9
2017-11-04T13:40:08.776Z,94.7
2017-11-04T13:45:07.854Z,94.7
2017-11-04T13:50:02.741Z,94.7
2017-11-04T13:55:06.103Z,94.6
2017-11-04T14:00:08.580Z,94.6
2017-11-04T14:05:08.433Z,95
2017-11-04T14:10:10.350Z,94.9
2017-11-04T14:15:28.395Z,95.2
2017-11-04T14:20:23.267Z,95.8
2017-11-04T14:25:07.963Z,96.3
2017-11-04T14:30:07.960Z,96.5
2017-11-04T14:35:10.222Z,96.4
2017-11-04T14:40:05.570Z,96.9
2017-11-04T14:45:08.472Z,97
2017-11-04T14:50:05.804Z,97.3
2017-11-04T14:55:10.701Z,97.5
2017-11-04T15:00:08.083Z,97.9
2017-11-04T15:05:05.298Z,98.1
2017-11-04T15:10:08.369Z,98.3
2017-11-04T15:15:26.181Z,98.7
2017-11-04T15:20:03.272Z,98.7
2017-11-04T15:25:05.651Z,99.4
2017-11-04T15:30:30.852Z,99.7
2017-11-04T15:35:02.712Z,99.7
2017-11-04T15:40:31.070Z,99.9
2017-11-04T15:45:28.616Z,99.9
2017-11-04T15:50:08.279Z,99.9
2017-11-04T15:55:33.273Z,99.9
2017-11-04T16:00:02.788Z,99.9
2017-11-04T16:05:03.486Z,99.9
2017-11-04T16:10:33.167Z,99.9
2017-11-04T16:15:20.702Z,99.9
2017-11-04T16:20:05.348Z,99.9
2017-11-04T16:25:07.695Z,99.9
2017-11-04T16:30:11.037Z,99.9
2017-11-04T16:35:03.130Z,99.9
2017-11-04T16:40:16.146Z,99.9
2017-11-04T16:45:07.793Z,99.9
2017-11-04T16:50:03.552Z,99.9
2017-11-04T16:55:15.863Z,99.9
2017-11-04T17:00:05.636Z,99.9
2017-11-04T17:05:02.801Z,99.9
2017-11-04T17:10:03.230Z,99.9
2017-11-04T17:15:03.413Z,99.9
2017-11-04T17:20:05.768Z,99.9
2017-11-04T17:25:05.357Z,99.9
2017-11-04T17:30:05.125Z,99.9
2017-11-04T17:35:15.943Z,99.9
2017-11-04T17:40:18.843Z,99.9
2017-11-04T17:45:17.928Z,99.9
2017-11-04T17:50:02.653Z,99.9
2017-11-04T17:55:18.470Z,99.9
2017-11-04T18:00:18.226Z,99.9
2017-11-04T18:05:33.123Z,99.9
2017-11-04T18:10:03.103Z,99.9
2017-11-04T18:15:03.262Z,99.9
2017-11-04T18:20:03.093Z,99.9
2017-11-04T18:25:07.835Z,99.9
2017-11-04T18:30:03.663Z,99.9
2017-11-04T18:35:05.684Z,99.9
2017-11-04T18:40:06.067Z,99.9
2017-11-04T18:45:23.831Z,99.9
2017-11-04T18:50:03.324Z,99.9
2017-11-04T18:55:13.129Z,99.9
2017-11-04T19:00:02.799Z,99.9
2017-11-04T19:05:11.060Z,99.9
2017-11-04T19:10:10.319Z,99.9
2017-11-04T19:15:02.865Z,99.9
2017-11-04T19:20:05.198Z,99.9
2017-11-04T19:25:03.222Z,99.9
2017-11-04T19:30:05.568Z,99.9
2017-11-04T19:35:02.649Z,99.9
2017-11-04T19:40:02.979Z,99.9
2017-11-04T19:45:05.629Z,99.9
2017-11-04T19:50:05.354Z,99.9
2017-11-04T19:55:13.628Z,99.9
2017-11-04T20:00:05.799Z,99.9
2017-11-04T20:05:05.438Z,93.5
2017-11-04T20:10:08.301Z,99.9
2017-11-04T20:20:03.153Z,99.9
2017-11-04T20:25:20.462Z,99.9
2017-11-04T20:30:06.036Z,99.9
2017-11-04T20:35:10.736Z,99.9
2017-11-04T20:40:03.396Z,99.9
2017-11-04T20:45:11.128Z,99.9
2017-11-04T20:50:08.386Z,99.9
2017-11-04T20:55:05.501Z,99.9
2017-11-04T21:00:05.293Z,99.9
2017-11-04T21:05:11.011Z,99.9
2017-11-04T21:10:30.559Z,99.9
2017-11-04T21:15:05.385Z,99.9
2017-11-04T21:20:10.384Z,99.9
2017-11-04T21:25:21.000Z,99.9
2017-11-04T21:30:23.375Z,99.9
2017-11-04T21:35:20.507Z,99.9
2017-11-04T21:40:03.122Z,99.9
2017-11-04T21:45:03.279Z,99.9
2017-11-04T21:50:05.610Z,99.9
2017-11-04T21:55:23.017Z,99.9
2017-11-04T22:00:02.650Z,99.9
2017-11-04T22:05:05.767Z,99.9
2017-11-04T22:10:17.784Z,99.9
2017-11-04T22:15:23.021Z,99.9
2017-11-04T22:20:03.528Z,99.9
2017-11-04T22:25:28.558Z,99.9
2017-11-04T22:30:03.070Z,99.9
2017-11-04T22:35:02.732Z,99.9
2017-11-04T22:45:25.960Z,99.9
2017-11-04T22:50:08.071Z,99.9
2017-11-04T22:55:22.987Z,99.9
2017-11-04T23:00:06.002Z,99.9
2017-11-04T23:05:18.392Z,99.9
2017-11-04T23:10:21.278Z,99.9
2017-11-04T23:15:17.849Z,99.9
2017-11-04T23:20:03.466Z,99.9
2017-11-04T23:25:13.262Z,99.9
2017-11-04T23:30:10.524Z,99.9
2017-11-04T23:35:08.605Z,99.9
2017-11-04T23:40:07.849Z,99.9
2017-11-04T23:45:02.956Z,99.9
2017-11-04T23:50:15.376Z,99.9
2017-11-04T23:55:13.513Z,99.9
